sensor_id;sensor_type;location;lat;lon;timestamp;P1;durP1;ratioP1;P2;durP2;ratioP2
37309;SDS011;23195;47.744;7.358;2022-07-21T00:16:55;22.67;;;17.60;;
37309;SDS011;23195;47.744;7.358;2022-07-21T00:19:20;19.77;;;16.57;;
37309;SDS011;23195;47.744;7.358;2022-07-21T00:21:46;22.67;;;17.47;;
37309;SDS011;23195;47.744;7.358;2022-07-21T00:24:12;23.30;;;16.43;;
37309;SDS011;23195;47.744;7.358;2022-07-21T00:26:38;21.87;;;16.23;;
37309;SDS011;23195;47.744;7.358;2022-07-21T00:29:07;18.87;;;16.83;;
37309;SDS011;23195;47.744;7.358;2022-07-21T00:31:48;18.73;;;16.73;;
37309;SDS011;23195;47.744;7.358;2022-07-21T00:34:21;21.43;;;17.83;;
37309;SDS011;23195;47.744;7.358;2022-07-21T00:36:49;19.60;;;17.30;;
37309;SDS011;23195;47.744;7.358;2022-07-21T00:39:25;24.17;;;18.40;;
37309;SDS011;23195;47.744;7.358;2022-07-21T00:42:08;19.83;;;17.30;;
37309;SDS011;23195;47.744;7.358;2022-07-21T00:44:52;21.57;;;18.23;;
37309;SDS011;23195;47.744;7.358;2022-07-21T00:47:24;23.57;;;17.27;;
37309;SDS011;23195;47.744;7.358;2022-07-21T01:13:30;25.33;;;20.30;;
37309;SDS011;23195;47.744;7.358;2022-07-21T01:16:09;25.47;;;20.33;;
37309;SDS011;23195;47.744;7.358;2022-07-21T01:18:47;23.43;;;19.87;;
37309;SDS011;23195;47.744;7.358;2022-07-21T01:21:43;25.73;;;19.20;;
37309;SDS011;23195;47.744;7.358;2022-07-21T03:01:12;26.43;;;20.07;;
37309;SDS011;23195;47.744;7.358;2022-07-21T03:03:39;28.07;;;22.13;;
37309;SDS011;23195;47.744;7.358;2022-07-21T03:06:05;25.10;;;22.37;;
37309;SDS011;23195;47.744;7.358;2022-07-21T03:08:31;25.97;;;19.80;;
37309;SDS011;23195;47.744;7.358;2022-07-21T03:10:57;22.80;;;19.23;;
37309;SDS011;23195;47.744;7.358;2022-07-21T03:13:23;25.67;;;21.17;;
37309;SDS011;23195;47.744;7.358;2022-07-21T03:15:52;27.97;;;21.67;;
37309;SDS011;23195;47.744;7.358;2022-07-21T03:18:18;28.73;;;22.90;;
37309;SDS011;23195;47.744;7.358;2022-07-21T03:20:44;28.57;;;22.37;;
37309;SDS011;23195;47.744;7.358;2022-07-21T03:23:11;28.20;;;23.03;;
37309;SDS011;23195;47.744;7.358;2022-07-21T03:25:37;30.47;;;22.20;;
37309;SDS011;23195;47.744;7.358;2022-07-21T03:28:03;30.13;;;22.93;;
37309;SDS011;23195;47.744;7.358;2022-07-21T03:30:30;29.03;;;23.20;;
37309;SDS011;23195;47.744;7.358;2022-07-21T03:32:56;31.23;;;24.53;;
37309;SDS011;23195;47.744;7.358;2022-07-21T03:35:24;30.53;;;24.67;;
37309;SDS011;23195;47.744;7.358;2022-07-21T03:37:50;31.87;;;24.67;;
37309;SDS011;23195;47.744;7.358;2022-07-21T03:40:24;29.73;;;23.83;;
37309;SDS011;23195;47.744;7.358;2022-07-21T03:42:55;31.97;;;24.67;;
37309;SDS011;23195;47.744;7.358;2022-07-21T03:45:22;28.80;;;23.23;;
37309;SDS011;23195;47.744;7.358;2022-07-21T03:47:52;31.63;;;23.97;;
37309;SDS011;23195;47.744;7.358;2022-07-21T03:50:21;29.43;;;24.00;;
37309;SDS011;23195;47.744;7.358;2022-07-21T03:52:47;31.07;;;24.70;;
37309;SDS011;23195;47.744;7.358;2022-07-21T03:55:14;33.93;;;24.40;;
37309;SDS011;23195;47.744;7.358;2022-07-21T03:57:50;32.10;;;24.13;;
37309;SDS011;23195;47.744;7.358;2022-07-21T04:00:21;29.57;;;23.77;;
37309;SDS011;23195;47.744;7.358;2022-07-21T04:02:52;29.70;;;24.83;;
37309;SDS011;23195;47.744;7.358;2022-07-21T04:05:18;29.13;;;24.77;;
37309;SDS011;23195;47.744;7.358;2022-07-21T04:07:46;29.63;;;22.93;;
37309;SDS011;23195;47.744;7.358;2022-07-21T04:10:14;33.90;;;24.87;;
37309;SDS011;23195;47.744;7.358;2022-07-21T04:12:41;34.30;;;25.83;;
37309;SDS011;23195;47.744;7.358;2022-07-21T04:15:13;30.57;;;24.23;;
37309;SDS011;23195;47.744;7.358;2022-07-21T04:17:39;33.07;;;24.97;;
37309;SDS011;23195;47.744;7.358;2022-07-21T04:20:08;34.77;;;25.20;;
37309;SDS011;23195;47.744;7.358;2022-07-21T04:22:45;35.87;;;24.97;;
37309;SDS011;23195;47.744;7.358;2022-07-21T04:25:12;31.33;;;24.87;;
37309;SDS011;23195;47.744;7.358;2022-07-21T04:27:41;32.13;;;26.60;;
37309;SDS011;23195;47.744;7.358;2022-07-21T04:30:11;32.47;;;24.47;;
37309;SDS011;23195;47.744;7.358;2022-07-21T04:32:38;29.97;;;24.30;;
37309;SDS011;23195;47.744;7.358;2022-07-21T04:35:04;28.07;;;22.90;;
37309;SDS011;23195;47.744;7.358;2022-07-21T04:37:34;27.93;;;22.73;;
37309;SDS011;23195;47.744;7.358;2022-07-21T04:40:01;29.37;;;21.53;;
37309;SDS011;23195;47.744;7.358;2022-07-21T04:42:29;24.07;;;19.77;;
37309;SDS011;23195;47.744;7.358;2022-07-21T04:44:55;25.13;;;19.33;;
37309;SDS011;23195;47.744;7.358;2022-07-21T04:47:21;19.47;;;17.37;;
37309;SDS011;23195;47.744;7.358;2022-07-21T04:49:47;20.50;;;16.83;;
37309;SDS011;23195;47.744;7.358;2022-07-21T04:52:13;20.47;;;16.40;;
37309;SDS011;23195;47.744;7.358;2022-07-21T04:54:48;19.43;;;15.60;;
37309;SDS011;23195;47.744;7.358;2022-07-21T04:57:14;17.80;;;15.60;;
37309;SDS011;23195;47.744;7.358;2022-07-21T04:59:40;16.80;;;15.00;;
37309;SDS011;23195;47.744;7.358;2022-07-21T05:02:06;17.60;;;14.73;;
37309;SDS011;23195;47.744;7.358;2022-07-21T05:04:35;22.20;;;15.27;;
37309;SDS011;23195;47.744;7.358;2022-07-21T05:07:01;18.77;;;14.33;;
37309;SDS011;23195;47.744;7.358;2022-07-21T05:09:36;15.80;;;14.10;;
37309;SDS011;23195;47.744;7.358;2022-07-21T05:12:05;17.67;;;14.67;;
37309;SDS011;23195;47.744;7.358;2022-07-21T05:14:31;16.33;;;14.53;;
37309;SDS011;23195;47.744;7.358;2022-07-21T05:16:59;16.23;;;14.57;;
37309;SDS011;23195;47.744;7.358;2022-07-21T05:19:28;16.20;;;14.53;;
37309;SDS011;23195;47.744;7.358;2022-07-21T05:21:54;16.50;;;14.70;;
37309;SDS011;23195;47.744;7.358;2022-07-21T05:24:23;17.30;;;15.13;;
37309;SDS011;23195;47.744;7.358;2022-07-21T05:26:49;17.07;;;14.47;;
37309;SDS011;23195;47.744;7.358;2022-07-21T05:29:14;18.60;;;13.57;;
37309;SDS011;23195;47.744;7.358;2022-07-21T05:31:40;14.17;;;12.67;;
37309;SDS011;23195;47.744;7.358;2022-07-21T05:34:10;17.57;;;14.17;;
37309;SDS011;23195;47.744;7.358;2022-07-21T05:36:41;14.70;;;13.20;;
37309;SDS011;23195;47.744;7.358;2022-07-21T05:39:07;13.67;;;12.20;;
37309;SDS011;23195;47.744;7.358;2022-07-21T05:41:33;14.40;;;13.00;;
37309;SDS011;23195;47.744;7.358;2022-07-21T05:43:59;16.33;;;13.57;;
37309;SDS011;23195;47.744;7.358;2022-07-21T05:46:25;14.40;;;12.90;;
37309;SDS011;23195;47.744;7.358;2022-07-21T05:48:52;13.97;;;12.27;;
37309;SDS011;23195;47.744;7.358;2022-07-21T05:51:22;13.67;;;12.30;;
37309;SDS011;23195;47.744;7.358;2022-07-21T05:53:47;14.27;;;12.90;;
37309;SDS011;23195;47.744;7.358;2022-07-21T05:56:13;14.53;;;13.10;;
37309;SDS011;23195;47.744;7.358;2022-07-21T05:58:39;13.67;;;12.07;;
37309;SDS011;23195;47.744;7.358;2022-07-21T06:01:05;12.93;;;11.63;;
37309;SDS011;23195;47.744;7.358;2022-07-21T06:03:42;13.90;;;12.60;;
37309;SDS011;23195;47.744;7.358;2022-07-21T06:06:09;13.33;;;12.03;;
37309;SDS011;23195;47.744;7.358;2022-07-21T06:08:41;13.60;;;12.13;;
37309;SDS011;23195;47.744;7.358;2022-07-21T06:11:11;13.20;;;11.57;;
37309;SDS011;23195;47.744;7.358;2022-07-21T06:13:38;12.50;;;11.33;;
37309;SDS011;23195;47.744;7.358;2022-07-21T06:16:04;13.30;;;11.90;;
37309;SDS011;23195;47.744;7.358;2022-07-21T06:18:31;13.57;;;12.17;;
37309;SDS011;23195;47.744;7.358;2022-07-21T06:20:56;14.07;;;12.37;;
37309;SDS011;23195;47.744;7.358;2022-07-21T06:23:23;12.73;;;11.53;;
37309;SDS011;23195;47.744;7.358;2022-07-21T06:25:50;13.33;;;12.20;;
37309;SDS011;23195;47.744;7.358;2022-07-21T06:28:19;14.23;;;12.83;;
37309;SDS011;23195;47.744;7.358;2022-07-21T06:30:46;12.97;;;11.63;;
37309;SDS011;23195;47.744;7.358;2022-07-21T06:36:09;13.37;;;11.97;;
37309;SDS011;23195;47.744;7.358;2022-07-21T06:38:42;13.57;;;12.27;;
37309;SDS011;23195;47.744;7.358;2022-07-21T06:41:21;13.90;;;11.77;;
37309;SDS011;23195;47.744;7.358;2022-07-21T06:44:20;14.90;;;13.00;;
37309;SDS011;23195;47.744;7.358;2022-07-21T06:46:50;13.93;;;12.23;;
37309;SDS011;23195;47.744;7.358;2022-07-21T06:49:16;13.17;;;11.83;;
37309;SDS011;23195;47.744;7.358;2022-07-21T06:51:42;14.03;;;11.67;;
37309;SDS011;23195;47.744;7.358;2022-07-21T06:54:09;12.50;;;11.30;;
37309;SDS011;23195;47.744;7.358;2022-07-21T06:56:34;13.10;;;10.27;;
37309;SDS011;23195;47.744;7.358;2022-07-21T06:59:04;11.37;;;10.37;;
37309;SDS011;23195;47.744;7.358;2022-07-21T07:01:32;11.73;;;10.53;;
37309;SDS011;23195;47.744;7.358;2022-07-21T07:03:59;11.67;;;9.80;;
37309;SDS011;23195;47.744;7.358;2022-07-21T07:06:24;14.77;;;10.20;;
37309;SDS011;23195;47.744;7.358;2022-07-21T07:08:50;10.93;;;9.83;;
37309;SDS011;23195;47.744;7.358;2022-07-21T07:11:16;10.83;;;9.50;;
37309;SDS011;23195;47.744;7.358;2022-07-21T07:13:45;12.40;;;10.03;;
37309;SDS011;23195;47.744;7.358;2022-07-21T07:16:10;10.60;;;9.43;;
37309;SDS011;23195;47.744;7.358;2022-07-21T07:18:36;8.90;;;8.13;;
37309;SDS011;23195;47.744;7.358;2022-07-21T07:21:03;9.18;;;8.38;;
37309;SDS011;23195;47.744;7.358;2022-07-21T07:23:29;9.00;;;8.10;;
37309;SDS011;23195;47.744;7.358;2022-07-21T07:28:44;9.60;;;8.60;;
37309;SDS011;23195;47.744;7.358;2022-07-21T07:31:15;8.85;;;8.00;;
37309;SDS011;23195;47.744;7.358;2022-07-21T07:34:16;8.68;;;7.60;;
37309;SDS011;23195;47.744;7.358;2022-07-21T07:36:56;8.45;;;7.65;;
37309;SDS011;23195;47.744;7.358;2022-07-21T07:39:22;9.13;;;7.55;;
37309;SDS011;23195;47.744;7.358;2022-07-21T07:41:48;9.25;;;7.80;;
37309;SDS011;23195;47.744;7.358;2022-07-21T07:44:16;8.75;;;7.95;;
37309;SDS011;23195;47.744;7.358;2022-07-21T07:46:45;7.78;;;7.07;;
37309;SDS011;23195;47.744;7.358;2022-07-21T07:49:11;9.43;;;7.10;;
37309;SDS011;23195;47.744;7.358;2022-07-21T07:51:38;7.47;;;6.88;;
37309;SDS011;23195;47.744;7.358;2022-07-21T07:54:06;8.35;;;7.18;;
37309;SDS011;23195;47.744;7.358;2022-07-21T07:56:33;7.00;;;6.30;;
37309;SDS011;23195;47.744;7.358;2022-07-21T07:58:58;10.45;;;7.05;;
37309;SDS011;23195;47.744;7.358;2022-07-21T08:01:32;7.47;;;6.85;;
37309;SDS011;23195;47.744;7.358;2022-07-21T08:03:58;9.55;;;6.82;;
37309;SDS011;23195;47.744;7.358;2022-07-21T08:06:24;6.60;;;5.93;;
37309;SDS011;23195;47.744;7.358;2022-07-21T08:09:15;6.72;;;5.88;;
37309;SDS011;23195;47.744;7.358;2022-07-21T08:12:02;6.75;;;5.30;;
37309;SDS011;23195;47.744;7.358;2022-07-21T08:14:36;6.03;;;5.30;;
37309;SDS011;23195;47.744;7.358;2022-07-21T08:17:25;5.75;;;5.10;;
37309;SDS011;23195;47.744;7.358;2022-07-21T08:19:55;5.38;;;4.82;;
37309;SDS011;23195;47.744;7.358;2022-07-21T08:22:24;6.85;;;4.20;;
37309;SDS011;23195;47.744;7.358;2022-07-21T08:24:50;4.82;;;4.43;;
37309;SDS011;23195;47.744;7.358;2022-07-21T08:27:48;5.20;;;4.32;;
37309;SDS011;23195;47.744;7.358;2022-07-21T08:30:25;4.82;;;4.43;;
37309;SDS011;23195;47.744;7.358;2022-07-21T08:33:00;4.43;;;4.13;;
37309;SDS011;23195;47.744;7.358;2022-07-21T08:35:46;6.60;;;5.00;;
37309;SDS011;23195;47.744;7.358;2022-07-21T08:38:33;7.13;;;5.05;;
37309;SDS011;23195;47.744;7.358;2022-07-21T08:44:13;5.10;;;4.20;;
37309;SDS011;23195;47.744;7.358;2022-07-21T08:46:40;4.53;;;4.13;;
37309;SDS011;23195;47.744;7.358;2022-07-21T08:49:07;4.15;;;3.67;;
37309;SDS011;23195;47.744;7.358;2022-07-21T08:51:37;4.55;;;4.07;;
37309;SDS011;23195;47.744;7.358;2022-07-21T08:54:03;5.03;;;4.03;;
37309;SDS011;23195;47.744;7.358;2022-07-21T08:56:29;4.25;;;3.95;;
37309;SDS011;23195;47.744;7.358;2022-07-21T08:58:56;7.45;;;3.70;;
37309;SDS011;23195;47.744;7.358;2022-07-21T09:01:22;5.95;;;3.80;;
37309;SDS011;23195;47.744;7.358;2022-07-21T09:03:49;4.05;;;3.13;;
37309;SDS011;23195;47.744;7.358;2022-07-21T09:06:51;3.35;;;3.10;;
37309;SDS011;23195;47.744;7.358;2022-07-21T09:09:28;4.22;;;3.83;;
37309;SDS011;23195;47.744;7.358;2022-07-21T09:12:06;4.00;;;3.65;;
37309;SDS011;23195;47.744;7.358;2022-07-21T09:14:38;4.78;;;4.18;;
37309;SDS011;23195;47.744;7.358;2022-07-21T09:17:10;6.75;;;4.13;;
37309;SDS011;23195;47.744;7.358;2022-07-21T09:23:31;5.22;;;3.75;;
37309;SDS011;23195;47.744;7.358;2022-07-21T09:25:51;4.63;;;3.90;;
37309;SDS011;23195;47.744;7.358;2022-07-21T09:29:09;4.50;;;2.72;;
37309;SDS011;23195;47.744;7.358;2022-07-21T09:35:30;3.75;;;3.45;;
37309;SDS011;23195;47.744;7.358;2022-07-21T09:38:22;5.75;;;3.65;;
37309;SDS011;23195;47.744;7.358;2022-07-21T09:40:54;6.55;;;3.85;;
37309;SDS011;23195;47.744;7.358;2022-07-21T09:46:29;4.50;;;3.63;;
37309;SDS011;23195;47.744;7.358;2022-07-21T09:48:56;4.13;;;3.37;;
37309;SDS011;23195;47.744;7.358;2022-07-21T09:54:01;4.43;;;4.03;;
37309;SDS011;23195;47.744;7.358;2022-07-21T09:59:20;5.37;;;3.37;;
37309;SDS011;23195;47.744;7.358;2022-07-21T10:01:47;6.47;;;3.57;;
37309;SDS011;23195;47.744;7.358;2022-07-21T10:04:15;5.30;;;3.67;;
37309;SDS011;23195;47.744;7.358;2022-07-21T10:06:45;5.90;;;3.50;;
37309;SDS011;23195;47.744;7.358;2022-07-21T10:09:17;4.57;;;3.47;;
37309;SDS011;23195;47.744;7.358;2022-07-21T10:11:46;3.63;;;3.30;;
37309;SDS011;23195;47.744;7.358;2022-07-21T10:17:28;6.83;;;6.23;;
37309;SDS011;23195;47.744;7.358;2022-07-21T10:19:59;4.63;;;4.20;;
37309;SDS011;23195;47.744;7.358;2022-07-21T10:25:22;5.07;;;4.00;;
37309;SDS011;23195;47.744;7.358;2022-07-21T10:30:38;5.10;;;4.60;;
37309;SDS011;23195;47.744;7.358;2022-07-21T10:33:06;4.80;;;3.43;;
37309;SDS011;23195;47.744;7.358;2022-07-21T10:35:32;5.60;;;3.60;;
37309;SDS011;23195;47.744;7.358;2022-07-21T10:38:01;7.30;;;3.53;;
37309;SDS011;23195;47.744;7.358;2022-07-21T10:48:00;3.23;;;2.90;;
37309;SDS011;23195;47.744;7.358;2022-07-21T10:50:34;3.60;;;2.90;;
37309;SDS011;23195;47.744;7.358;2022-07-21T10:53:05;3.30;;;2.90;;
37309;SDS011;23195;47.744;7.358;2022-07-21T10:55:38;3.40;;;3.10;;
37309;SDS011;23195;47.744;7.358;2022-07-21T11:00:44;3.93;;;2.90;;
37309;SDS011;23195;47.744;7.358;2022-07-21T11:03:13;4.67;;;2.87;;
37309;SDS011;23195;47.744;7.358;2022-07-21T11:08:35;3.60;;;2.67;;
37309;SDS011;23195;47.744;7.358;2022-07-21T11:11:09;4.83;;;3.00;;
37309;SDS011;23195;47.744;7.358;2022-07-21T11:14:12;5.73;;;2.70;;
37309;SDS011;23195;47.744;7.358;2022-07-21T11:21:53;3.10;;;2.80;;
37309;SDS011;23195;47.744;7.358;2022-07-21T11:24:23;5.23;;;2.93;;
37309;SDS011;23195;47.744;7.358;2022-07-21T11:27:04;4.20;;;2.90;;
37309;SDS011;23195;47.744;7.358;2022-07-21T11:29:38;3.40;;;3.10;;
37309;SDS011;23195;47.744;7.358;2022-07-21T11:32:05;2.73;;;2.53;;
37309;SDS011;23195;47.744;7.358;2022-07-21T11:34:40;4.17;;;3.10;;
37309;SDS011;23195;47.744;7.358;2022-07-21T11:37:08;3.33;;;2.67;;
37309;SDS011;23195;47.744;7.358;2022-07-21T11:39:36;2.70;;;2.50;;
37309;SDS011;23195;47.744;7.358;2022-07-21T11:42:06;2.80;;;2.60;;
37309;SDS011;23195;47.744;7.358;2022-07-21T11:44:51;6.10;;;2.87;;
37309;SDS011;23195;47.744;7.358;2022-07-21T11:47:17;4.80;;;2.87;;
37309;SDS011;23195;47.744;7.358;2022-07-21T11:49:45;2.50;;;2.30;;
37309;SDS011;23195;47.744;7.358;2022-07-21T11:52:12;3.93;;;2.50;;
37309;SDS011;23195;47.744;7.358;2022-07-21T11:54:46;3.97;;;2.50;;
37309;SDS011;23195;47.744;7.358;2022-07-21T11:57:14;3.60;;;2.50;;
37309;SDS011;23195;47.744;7.358;2022-07-21T11:59:41;3.40;;;2.53;;
37309;SDS011;23195;47.744;7.358;2022-07-21T12:02:09;4.27;;;2.67;;
37309;SDS011;23195;47.744;7.358;2022-07-21T12:07:34;3.80;;;2.33;;
37309;SDS011;23195;47.744;7.358;2022-07-21T12:12:31;5.43;;;2.47;;
37309;SDS011;23195;47.744;7.358;2022-07-21T12:17:56;2.90;;;2.20;;
37309;SDS011;23195;47.744;7.358;2022-07-21T12:20:37;3.67;;;2.60;;
37309;SDS011;23195;47.744;7.358;2022-07-21T12:23:21;3.03;;;2.40;;
37309;SDS011;23195;47.744;7.358;2022-07-21T12:25:55;4.20;;;2.30;;
37309;SDS011;23195;47.744;7.358;2022-07-21T12:31:13;3.10;;;2.33;;
37309;SDS011;23195;47.744;7.358;2022-07-21T12:33:47;2.67;;;2.47;;
37309;SDS011;23195;47.744;7.358;2022-07-21T12:36:14;4.10;;;2.60;;
37309;SDS011;23195;47.744;7.358;2022-07-21T12:38:44;4.67;;;2.57;;
37309;SDS011;23195;47.744;7.358;2022-07-21T12:41:18;2.83;;;2.30;;
37309;SDS011;23195;47.744;7.358;2022-07-21T12:43:56;3.27;;;2.50;;
37309;SDS011;23195;47.744;7.358;2022-07-21T12:46:32;2.97;;;2.67;;
37309;SDS011;23195;47.744;7.358;2022-07-21T12:51:34;2.87;;;2.47;;
37309;SDS011;23195;47.744;7.358;2022-07-21T12:54:04;2.60;;;2.40;;
37309;SDS011;23195;47.744;7.358;2022-07-21T12:56:31;2.63;;;2.43;;
37309;SDS011;23195;47.744;7.358;2022-07-21T12:58:58;3.07;;;2.77;;
37309;SDS011;23195;47.744;7.358;2022-07-21T13:01:26;3.13;;;2.73;;
37309;SDS011;23195;47.744;7.358;2022-07-21T13:03:53;4.73;;;2.57;;
37309;SDS011;23195;47.744;7.358;2022-07-21T13:06:22;4.33;;;2.70;;
37309;SDS011;23195;47.744;7.358;2022-07-21T13:08:48;2.97;;;2.73;;
37309;SDS011;23195;47.744;7.358;2022-07-21T13:11:15;3.50;;;2.40;;
37309;SDS011;23195;47.744;7.358;2022-07-21T13:13:44;2.87;;;2.60;;
37309;SDS011;23195;47.744;7.358;2022-07-21T13:16:17;3.60;;;2.57;;
37309;SDS011;23195;47.744;7.358;2022-07-21T13:18:45;2.80;;;2.60;;
37309;SDS011;23195;47.744;7.358;2022-07-21T13:21:11;3.33;;;2.93;;
37309;SDS011;23195;47.744;7.358;2022-07-21T13:23:43;4.97;;;2.93;;
37309;SDS011;23195;47.744;7.358;2022-07-21T13:26:09;2.90;;;2.70;;
37309;SDS011;23195;47.744;7.358;2022-07-21T13:28:35;3.03;;;2.73;;
37309;SDS011;23195;47.744;7.358;2022-07-21T13:31:01;3.80;;;2.90;;
37309;SDS011;23195;47.744;7.358;2022-07-21T13:33:27;3.50;;;2.73;;
37309;SDS011;23195;47.744;7.358;2022-07-21T13:36:03;3.27;;;2.70;;
37309;SDS011;23195;47.744;7.358;2022-07-21T13:38:31;4.03;;;2.77;;
37309;SDS011;23195;47.744;7.358;2022-07-21T13:40:57;3.47;;;2.73;;
37309;SDS011;23195;47.744;7.358;2022-07-21T13:43:23;4.07;;;2.93;;
37309;SDS011;23195;47.744;7.358;2022-07-21T13:45:49;3.67;;;2.67;;
37309;SDS011;23195;47.744;7.358;2022-07-21T13:48:14;2.93;;;2.73;;
37309;SDS011;23195;47.744;7.358;2022-07-21T13:50:41;3.07;;;2.87;;
37309;SDS011;23195;47.744;7.358;2022-07-21T13:53:07;4.83;;;2.93;;
37309;SDS011;23195;47.744;7.358;2022-07-21T13:55:43;3.20;;;2.90;;
37309;SDS011;23195;47.744;7.358;2022-07-21T13:58:09;3.40;;;2.77;;
37309;SDS011;23195;47.744;7.358;2022-07-21T14:00:35;3.53;;;2.90;;
37309;SDS011;23195;47.744;7.358;2022-07-21T14:03:03;3.10;;;2.50;;
37309;SDS011;23195;47.744;7.358;2022-07-21T14:05:29;4.67;;;3.17;;
37309;SDS011;23195;47.744;7.358;2022-07-21T14:07:55;3.33;;;3.03;;
37309;SDS011;23195;47.744;7.358;2022-07-21T14:10:21;3.70;;;2.90;;
37309;SDS011;23195;47.744;7.358;2022-07-21T14:12:46;4.40;;;3.03;;
37309;SDS011;23195;47.744;7.358;2022-07-21T14:15:12;3.10;;;2.80;;
37309;SDS011;23195;47.744;7.358;2022-07-21T14:17:38;2.87;;;2.53;;
37309;SDS011;23195;47.744;7.358;2022-07-21T14:20:04;5.33;;;3.20;;
37309;SDS011;23195;47.744;7.358;2022-07-21T14:22:30;4.37;;;3.00;;
37309;SDS011;23195;47.744;7.358;2022-07-21T14:24:56;3.30;;;3.00;;
37309;SDS011;23195;47.744;7.358;2022-07-21T14:27:40;3.17;;;2.80;;
37309;SDS011;23195;47.744;7.358;2022-07-21T14:30:06;3.20;;;2.90;;
37309;SDS011;23195;47.744;7.358;2022-07-21T14:32:32;4.40;;;3.67;;
37309;SDS011;23195;47.744;7.358;2022-07-21T14:35:01;2.97;;;2.77;;
37309;SDS011;23195;47.744;7.358;2022-07-21T14:37:27;3.33;;;3.03;;
37309;SDS011;23195;47.744;7.358;2022-07-21T14:39:53;3.30;;;3.00;;
37309;SDS011;23195;47.744;7.358;2022-07-21T14:42:19;3.83;;;2.90;;
37309;SDS011;23195;47.744;7.358;2022-07-21T14:44:50;3.93;;;3.40;;
37309;SDS011;23195;47.744;7.358;2022-07-21T14:47:16;3.40;;;2.70;;
37309;SDS011;23195;47.744;7.358;2022-07-21T14:49:42;5.50;;;3.00;;
37309;SDS011;23195;47.744;7.358;2022-07-21T14:52:07;5.00;;;3.10;;
37309;SDS011;23195;47.744;7.358;2022-07-21T14:54:39;2.97;;;2.67;;
37309;SDS011;23195;47.744;7.358;2022-07-21T14:57:07;3.10;;;2.90;;
37309;SDS011;23195;47.744;7.358;2022-07-21T14:59:35;3.67;;;3.37;;
37309;SDS011;23195;47.744;7.358;2022-07-21T15:02:01;4.60;;;3.40;;
37309;SDS011;23195;47.744;7.358;2022-07-21T15:04:30;3.63;;;3.33;;
37309;SDS011;23195;47.744;7.358;2022-07-21T15:06:56;3.83;;;2.97;;
37309;SDS011;23195;47.744;7.358;2022-07-21T15:09:22;4.30;;;3.57;;
37309;SDS011;23195;47.744;7.358;2022-07-21T15:11:48;4.67;;;3.40;;
37309;SDS011;23195;47.744;7.358;2022-07-21T15:14:14;3.73;;;3.37;;
37309;SDS011;23195;47.744;7.358;2022-07-21T15:16:39;4.93;;;3.37;;
37309;SDS011;23195;47.744;7.358;2022-07-21T15:19:05;4.43;;;3.33;;
37309;SDS011;23195;47.744;7.358;2022-07-21T15:24:23;5.40;;;3.47;;
37309;SDS011;23195;47.744;7.358;2022-07-21T15:26:49;3.73;;;3.37;;
37309;SDS011;23195;47.744;7.358;2022-07-21T15:29:15;4.03;;;3.67;;
37309;SDS011;23195;47.744;7.358;2022-07-21T15:31:44;5.00;;;3.67;;
37309;SDS011;23195;47.744;7.358;2022-07-21T15:34:10;4.00;;;3.60;;
37309;SDS011;23195;47.744;7.358;2022-07-21T15:36:36;4.53;;;3.60;;
37309;SDS011;23195;47.744;7.358;2022-07-21T15:39:05;4.07;;;3.40;;
37309;SDS011;23195;47.744;7.358;2022-07-21T15:41:34;4.93;;;3.83;;
37309;SDS011;23195;47.744;7.358;2022-07-21T15:44:01;4.10;;;3.70;;
37309;SDS011;23195;47.744;7.358;2022-07-21T15:46:28;5.57;;;3.90;;
37309;SDS011;23195;47.744;7.358;2022-07-21T15:48:53;4.57;;;3.90;;
37309;SDS011;23195;47.744;7.358;2022-07-21T15:51:19;5.00;;;4.53;;
37309;SDS011;23195;47.744;7.358;2022-07-21T15:53:45;5.13;;;3.63;;
37309;SDS011;23195;47.744;7.358;2022-07-21T15:56:13;4.33;;;3.93;;
37309;SDS011;23195;47.744;7.358;2022-07-21T15:58:39;5.13;;;3.90;;
37309;SDS011;23195;47.744;7.358;2022-07-21T16:01:26;6.17;;;4.27;;
37309;SDS011;23195;47.744;7.358;2022-07-21T16:03:52;4.47;;;3.97;;
37309;SDS011;23195;47.744;7.358;2022-07-21T16:06:18;4.60;;;4.10;;
37309;SDS011;23195;47.744;7.358;2022-07-21T16:08:55;4.73;;;4.00;;
37309;SDS011;23195;47.744;7.358;2022-07-21T16:11:24;4.53;;;4.13;;
37309;SDS011;23195;47.744;7.358;2022-07-21T16:13:50;4.93;;;3.97;;
37309;SDS011;23195;47.744;7.358;2022-07-21T16:19:21;8.13;;;4.10;;
37309;SDS011;23195;47.744;7.358;2022-07-21T16:25:13;4.70;;;4.27;;
37309;SDS011;23195;47.744;7.358;2022-07-21T16:27:44;6.03;;;4.03;;
37309;SDS011;23195;47.744;7.358;2022-07-21T16:30:18;4.53;;;4.10;;
37309;SDS011;23195;47.744;7.358;2022-07-21T16:32:47;4.50;;;4.10;;
37309;SDS011;23195;47.744;7.358;2022-07-21T16:35:13;6.13;;;4.20;;
37309;SDS011;23195;47.744;7.358;2022-07-21T16:37:43;4.47;;;4.07;;
37309;SDS011;23195;47.744;7.358;2022-07-21T16:40:11;6.53;;;4.33;;
37309;SDS011;23195;47.744;7.358;2022-07-21T16:42:39;5.17;;;4.43;;
37309;SDS011;23195;47.744;7.358;2022-07-21T16:45:05;4.70;;;4.30;;
37309;SDS011;23195;47.744;7.358;2022-07-21T16:47:34;5.50;;;4.33;;
37309;SDS011;23195;47.744;7.358;2022-07-21T16:50:13;4.70;;;4.17;;
37309;SDS011;23195;47.744;7.358;2022-07-21T16:52:45;4.80;;;4.37;;
37309;SDS011;23195;47.744;7.358;2022-07-21T16:55:16;5.80;;;4.30;;
37309;SDS011;23195;47.744;7.358;2022-07-21T16:57:52;5.07;;;4.30;;
37309;SDS011;23195;47.744;7.358;2022-07-21T17:00:17;6.97;;;4.50;;
37309;SDS011;23195;47.744;7.358;2022-07-21T17:02:44;5.37;;;4.87;;
37309;SDS011;23195;47.744;7.358;2022-07-21T17:05:11;6.63;;;4.23;;
37309;SDS011;23195;47.744;7.358;2022-07-21T17:08:01;4.77;;;4.30;;
37309;SDS011;23195;47.744;7.358;2022-07-21T17:10:29;5.67;;;4.20;;
37309;SDS011;23195;47.744;7.358;2022-07-21T17:12:58;5.20;;;4.50;;
37309;SDS011;23195;47.744;7.358;2022-07-21T17:15:30;6.03;;;4.20;;
37309;SDS011;23195;47.744;7.358;2022-07-21T17:17:56;6.00;;;4.63;;
37309;SDS011;23195;47.744;7.358;2022-07-21T17:20:34;9.53;;;4.47;;
37309;SDS011;23195;47.744;7.358;2022-07-21T17:23:08;5.87;;;4.20;;
37309;SDS011;23195;47.744;7.358;2022-07-21T17:25:35;4.77;;;4.30;;
37309;SDS011;23195;47.744;7.358;2022-07-21T17:28:02;5.30;;;3.97;;
37309;SDS011;23195;47.744;7.358;2022-07-21T17:30:31;5.27;;;4.30;;
37309;SDS011;23195;47.744;7.358;2022-07-21T17:32:57;5.67;;;4.03;;
37309;SDS011;23195;47.744;7.358;2022-07-21T17:35:23;6.20;;;4.50;;
37309;SDS011;23195;47.744;7.358;2022-07-21T17:37:49;5.40;;;4.30;;
37309;SDS011;23195;47.744;7.358;2022-07-21T17:40:15;5.63;;;4.40;;
37309;SDS011;23195;47.744;7.358;2022-07-21T17:42:41;6.57;;;4.30;;
37309;SDS011;23195;47.744;7.358;2022-07-21T17:45:07;5.77;;;4.33;;
37309;SDS011;23195;47.744;7.358;2022-07-21T17:47:34;5.90;;;4.90;;
37309;SDS011;23195;47.744;7.358;2022-07-21T17:50:00;5.47;;;4.30;;
37309;SDS011;23195;47.744;7.358;2022-07-21T17:52:27;7.07;;;5.00;;
37309;SDS011;23195;47.744;7.358;2022-07-21T17:54:53;5.03;;;4.63;;
37309;SDS011;23195;47.744;7.358;2022-07-21T17:57:19;7.80;;;5.60;;
37309;SDS011;23195;47.744;7.358;2022-07-21T18:00:04;8.27;;;6.00;;
37309;SDS011;23195;47.744;7.358;2022-07-21T18:02:31;7.60;;;6.17;;
37309;SDS011;23195;47.744;7.358;2022-07-21T18:04:59;7.83;;;5.40;;
37309;SDS011;23195;47.744;7.358;2022-07-21T18:07:25;6.13;;;4.90;;
37309;SDS011;23195;47.744;7.358;2022-07-21T18:09:54;5.00;;;4.47;;
37309;SDS011;23195;47.744;7.358;2022-07-21T18:12:20;6.93;;;3.67;;
37309;SDS011;23195;47.744;7.358;2022-07-21T18:14:50;5.63;;;4.10;;
37309;SDS011;23195;47.744;7.358;2022-07-21T18:17:16;4.83;;;4.03;;
37309;SDS011;23195;47.744;7.358;2022-07-21T18:19:42;3.93;;;3.57;;
37309;SDS011;23195;47.744;7.358;2022-07-21T18:22:08;4.30;;;3.90;;
37309;SDS011;23195;47.744;7.358;2022-07-21T18:24:34;8.50;;;4.37;;